FNHU/NOV METAR and TAF weather

Enter ICAO airport designator
Station Type Date Time Source
FNHU METAR 2019/12/13 14:00 UTC NOAA

FNHU 131400Z 16006KT 9999 SCT016 30/12 Q1018


Station Type Date Time Source
FNHU Decoded METAR 2019/12/13 14:00 UTC NOAA

Huambo Nova Lisboa , Angola (FNHU) 12-48S 015-45E 1701M
Dec 13, 2019 - 09:00 AM EST / 2019.12.13 1400 UTC
Wind: from the SSE (160 degrees) at 7 MPH (6 KT):0
Visibility: greater than 7 mile(s):0
Sky conditions: partly cloudy
Temperature: 86 F (30 C)
Dew Point: 53 F (12 C)
Relative Humidity: 33%
Pressure (altimeter): 30.06 in. Hg (1018 hPa)
ob: FNHU 131400Z 16006KT 9999 SCT016 30/12 Q1018
cycle: 14

Station Type Date Time Source
FNHU TAF 2019/12/13 12:45 UTC NOAA

TAF FNHU 131045Z 1312/1324 14007KT CAVOK
BECMG 1315/1318 VRB03KT 9999 FEW015 SCT020

Example: see airport list